Time;durP1;ratioP1;P1;durP2;ratioP2;P2;SDS_P1;SDS_P2;PMS_P1;PMS_P2;Temp;Humidity;BMP_temperature;BMP_pressure;BME280_temperature;BME280_humidity;BME280_pressure;Samples;Min_cycle;Max_cycle;Signal;HPM_P1;HPM_P2
2021/03/07 05:02:19;;;;;;;14.80;9.82;;;2.40;99.90;;;;;;5020586;23;89513;-89
2021/03/07 05:04:44;;;;;;;17.67;10.88;;;2.50;99.90;;;;;;4964660;28;86454;-89
2021/03/07 05:07:10;;;;;;;15.48;9.73;;;2.50;99.90;;;;;;4950037;28;86702;-88
2021/03/07 05:09:36;;;;;;;15.43;10.15;;;2.50;99.90;;;;;;4963098;28;86768;-87
2021/03/07 05:12:02;;;;;;;14.85;9.68;;;2.60;99.90;;;;;;4969961;28;87471;-86
2021/03/07 05:14:27;;;;;;;17.20;10.57;;;2.60;99.90;;;;;;4958719;28;86723;-87
2021/03/07 05:16:53;;;;;;;15.77;11.05;;;2.60;99.90;;;;;;4933271;28;89201;-86
2021/03/07 05:19:19;;;;;;;15.27;10.18;;;2.60;99.90;;;;;;4966910;28;87609;-87
2021/03/07 05:21:44;;;;;;;17.20;10.18;;;2.60;99.90;;;;;;4971061;28;86980;-88
2021/03/07 05:24:10;;;;;;;14.20;9.85;;;2.60;99.90;;;;;;4961360;28;87827;-87
2021/03/07 05:26:36;;;;;;;15.73;9.10;;;2.70;99.90;;;;;;4960443;28;86827;-87
2021/03/07 05:29:02;;;;;;;14.98;9.27;;;2.70;99.90;;;;;;4952247;28;87125;-87
2021/03/07 05:31:28;;;;;;;14.73;10.27;;;2.70;99.90;;;;;;4960834;28;86941;-88
2021/03/07 05:33:53;;;;;;;15.13;10.40;;;2.80;99.90;;;;;;4962123;28;86968;-88
2021/03/07 05:36:19;;;;;;;14.00;9.82;;;2.90;99.90;;;;;;4971770;28;86344;-88
2021/03/07 05:38:45;;;;;;;13.18;10.05;;;3.00;99.90;;;;;;4962719;28;87729;-88
2021/03/07 05:41:12;;;;;;;14.93;10.00;;;2.80;99.90;;;;;;4955627;28;87174;-87
2021/03/07 05:43:39;;;;;;;14.63;9.45;;;;;;;;;;4952090;28;87474;-88
2021/03/07 05:46:05;;;;;;;16.88;9.95;;;;;;;;;;4936025;28;88787;-87
2021/03/07 05:48:30;;;;;;;14.25;9.82;;;2.70;99.90;;;;;;4950184;28;87877;-88
2021/03/07 05:50:57;;;;;;;14.75;10.25;;;2.80;99.90;;;;;;4950327;28;88272;-87
2021/03/07 05:53:23;;;;;;;15.63;10.57;;;;;;;;;;4967420;28;86407;-88
2021/03/07 05:55:49;;;;;;;15.68;10.32;;;3.00;99.90;;;;;;4951902;28;87168;-88
2021/03/07 05:58:17;;;;;;;16.02;11.02;;;3.20;99.90;;;;;;4961503;28;91042;-88
2021/03/07 06:00:43;;;;;;;17.20;11.20;;;;;;;;;;4967849;28;87548;-88
2021/03/07 06:03:09;;;;;;;15.15;10.82;;;3.20;99.90;;;;;;4971100;28;86684;-88
2021/03/07 06:05:35;;;;;;;15.75;10.27;;;3.30;99.90;;;;;;4936690;28;87833;-89
2021/03/07 06:11:31;;;;;;;16.92;10.43;;;3.30;99.90;;;;;;4954926;28;86653;-89
2021/03/07 06:13:56;;;;;;;18.17;11.35;;;3.20;99.90;;;;;;4961734;28;87687;-85
2021/03/07 06:16:22;;;;;;;20.23;11.98;;;3.10;99.90;;;;;;4979468;28;86704;-85
2021/03/07 06:18:48;;;;;;;16.60;10.32;;;;;;;;;;4972029;28;87486;-86
2021/03/07 06:21:34;;;;;;;15.63;11.25;;;3.10;99.90;;;;;;4958695;28;86908;-87
2021/03/07 06:24:01;;;;;;;15.32;10.40;;;3.10;99.90;;;;;;4958594;28;87212;-84
2021/03/07 06:26:28;;;;;;;17.85;11.00;;;3.10;99.90;;;;;;4953147;28;86921;-88
2021/03/07 06:29:11;;;;;;;16.25;10.65;;;3.10;99.90;;;;;;4969265;28;87852;-86
2021/03/07 06:31:40;;;;;;;16.48;10.55;;;3.20;99.90;;;;;;4970401;28;86428;-85
2021/03/07 06:34:07;;;;;;;17.48;10.60;;;;;;;;;;4969667;28;85966;-86
2021/03/07 06:36:36;;;;;;;19.42;11.10;;;3.30;99.90;;;;;;4968053;28;86660;-87
2021/03/07 06:39:04;;;;;;;23.10;12.93;;;2.90;99.90;;;;;;4962926;28;88205;-89
2021/03/07 06:41:33;;;;;;;21.35;12.77;;;2.60;99.90;;;;;;4962544;28;87699;-85
2021/03/07 06:44:13;;;;;;;19.58;12.50;;;2.60;99.90;;;;;;4967241;28;85950;-85
2021/03/07 06:46:45;;;;;;;19.50;12.20;;;2.80;99.90;;;;;;4966600;28;86702;-87
2021/03/07 06:49:24;;;;;;;18.88;12.25;;;2.70;99.90;;;;;;4954544;28;87481;-87
2021/03/07 06:51:50;;;;;;;20.40;12.55;;;2.70;99.90;;;;;;4935705;28;86793;-87
2021/03/07 06:54:18;;;;;;;21.30;12.43;;;2.50;99.90;;;;;;4952676;28;86680;-87
2021/03/07 06:56:49;;;;;;;21.45;13.18;;;2.40;99.90;;;;;;4953810;28;85517;-85
2021/03/07 06:59:21;;;;;;;22.58;14.27;;;2.40;99.90;;;;;;4935142;28;89332;-87
2021/03/07 07:01:49;;;;;;;22.20;13.13;;;2.40;99.90;;;;;;4953354;28;86818;-86
2021/03/07 07:04:16;;;;;;;22.02;12.85;;;2.30;99.90;;;;;;4954769;28;87479;-88
2021/03/07 07:06:43;;;;;;;17.73;11.57;;;2.10;99.90;;;;;;4955477;28;87064;-88
2021/03/07 07:09:10;;;;;;;22.88;14.15;;;2.10;99.90;;;;;;4956578;28;87743;-88
2021/03/07 07:11:54;;;;;;;19.52;13.65;;;2.10;99.90;;;;;;4937767;28;89034;-87
2021/03/07 07:14:42;;;;;;;24.27;13.70;;;2.10;99.90;;;;;;4938532;28;87355;-86
2021/03/07 07:17:14;;;;;;;25.75;15.45;;;2.10;99.90;;;;;;4939925;28;86911;-86
2021/03/07 07:19:40;;;;;;;;;;;2.20;99.90;;;;;;4935583;28;90018;-90
2021/03/07 07:22:07;;;;;;;21.70;14.40;;;2.30;99.90;;;;;;4958553;28;86979;-87
2021/03/07 07:24:33;;;;;;;25.48;15.35;;;2.50;99.90;;;;;;4956304;28;86836;-87
2021/03/07 07:27:00;;;;;;;25.58;15.00;;;2.70;99.90;;;;;;4955072;28;86832;-82
2021/03/07 07:29:26;;;;;;;23.60;14.38;;;2.70;99.90;;;;;;4955933;28;88129;-84
2021/03/07 07:32:02;;;;;;;23.25;14.63;;;2.80;99.90;;;;;;4938230;28;91356;-85
2021/03/07 07:34:43;;;;;;;25.88;15.57;;;2.90;99.90;;;;;;4956356;28;86686;-85
2021/03/07 07:37:14;;;;;;;25.55;15.48;;;3.10;99.90;;;;;;4958637;28;86891;-86
2021/03/07 07:39:41;;;;;;;25.25;15.15;;;3.30;99.90;;;;;;4958188;28;87676;-86
2021/03/07 07:42:36;;;;;;;24.60;14.57;;;3.40;99.90;;;;;;4956889;28;86585;-83
2021/03/07 07:45:13;;;;;;;21.95;14.05;;;3.50;99.90;;;;;;4956875;28;86702;-85
2021/03/07 07:47:46;;;;;;;22.95;14.63;;;3.70;99.90;;;;;;4955293;28;85667;-86
2021/03/07 07:50:36;;;;;;;20.70;13.40;;;4.00;99.90;;;;;;4953642;28;87750;-85
2021/03/07 07:53:17;;;;;;;15.02;10.73;;;4.20;99.90;;;;;;4955474;28;88480;-82
2021/03/07 07:59:06;;;;;;;17.55;12.23;;;4.40;99.90;;;;;;4950878;28;86940;-86
2021/03/07 08:01:54;;;;;;;16.98;12.05;;;4.60;99.90;;;;;;4951817;28;87408;-84
2021/03/07 08:04:28;;;;;;;18.52;12.43;;;4.90;99.90;;;;;;4950800;28;87368;-86
2021/03/07 08:06:56;;;;;;;16.60;11.88;;;5.20;99.90;;;;;;4933524;28;86826;-86
2021/03/07 08:12:43;;;;;;;18.63;12.23;;;5.80;99.90;;;;;;4949080;28;86843;-88
2021/03/07 08:18:51;;;;;;;19.23;12.43;;;6.20;99.90;;;;;;4950147;28;86752;-87
2021/03/07 08:21:20;;;;;;;18.92;11.90;;;6.30;99.90;;;;;;4954149;28;87083;-86
2021/03/07 08:23:55;;;;;;;17.33;11.65;;;6.30;99.90;;;;;;4948268;28;88138;-86
2021/03/07 08:29:47;;;;;;;16.73;11.88;;;6.20;99.90;;;;;;4950472;28;86820;-85
2021/03/07 08:32:40;;;;;;;15.57;11.18;;;6.10;99.90;;;;;;4953110;28;86688;-84
2021/03/07 08:35:22;;;;;;;19.33;13.05;;;6.00;99.90;;;;;;4949217;28;87694;-85
2021/03/07 08:38:17;;;;;;;17.73;12.60;;;6.00;99.90;;;;;;4952010;28;87548;-85
2021/03/07 08:44:16;;;;;;;16.90;11.65;;;5.80;99.90;;;;;;4948261;28;86231;-86
2021/03/07 08:46:42;;;;;;;18.33;12.52;;;;;;;;;;4951011;28;86792;-86
2021/03/07 08:49:09;;;;;;;16.70;12.10;;;6.30;99.90;;;;;;4949704;28;87538;-85
2021/03/07 08:51:39;;;;;;;16.38;11.88;;;6.50;99.90;;;;;;4950111;28;87489;-85
2021/03/07 08:54:07;;;;;;;17.63;12.20;;;6.70;99.90;;;;;;4930110;28;87021;-84
2021/03/07 08:56:33;;;;;;;16.50;11.65;;;6.80;99.90;;;;;;4948237;28;86961;-84
2021/03/07 08:58:59;;;;;;;16.90;11.68;;;6.90;99.90;;;;;;4947159;28;87429;-86
2021/03/07 09:01:26;;;;;;;18.52;12.55;;;7.00;99.90;;;;;;4964147;28;86958;-86
2021/03/07 09:03:59;;;;;;;15.82;12.60;;;7.20;99.90;;;;;;4966458;28;87104;-84
2021/03/07 09:09:47;;;;;;;15.70;11.73;;;7.70;98.90;;;;;;4965382;28;85951;-86
2021/03/07 09:12:17;;;;;;;18.50;12.05;;;8.10;98.20;;;;;;4969030;28;86329;-84
2021/03/07 09:18:05;;;;;;;16.23;11.50;;;9.30;96.10;;;;;;4945580;28;87239;-86
2021/03/07 09:20:55;;;;;;;18.27;12.48;;;9.70;93.00;;;;;;4943824;28;89654;-85
2021/03/07 09:23:40;;;;;;;16.40;11.68;;;9.90;92.40;;;;;;4943030;28;86357;-87
2021/03/07 09:26:13;;;;;;;15.55;11.73;;;10.20;90.90;;;;;;4950904;28;86824;-87
2021/03/07 09:28:51;;;;;;;13.65;11.00;;;10.70;90.80;;;;;;4949046;28;86788;-86
2021/03/07 09:31:19;;;;;;;16.02;11.93;;;11.40;88.50;;;;;;4930889;28;89181;-87
2021/03/07 09:33:54;;;;;;;14.13;11.30;;;12.00;85.30;;;;;;4952644;28;85978;-86
2021/03/07 09:36:24;;;;;;;13.15;10.68;;;12.20;80.20;;;;;;4950337;28;87308;-85
2021/03/07 09:38:54;;;;;;;14.23;11.23;;;12.20;79.20;;;;;;4950425;28;88857;-87
2021/03/07 09:41:41;;;;;;;13.63;10.80;;;12.30;77.80;;;;;;4949982;28;87229;-85
2021/03/07 09:44:12;;;;;;;15.07;11.80;;;12.30;75.00;;;;;;4949719;28;87601;-84
2021/03/07 09:50:04;;;;;;;14.10;11.80;;;12.30;74.10;;;;;;4947567;28;86628;-86
2021/03/07 09:52:30;;;;;;;14.07;11.48;;;11.70;73.20;;;;;;4931284;28;89028;-84
2021/03/07 09:54:56;;;;;;;17.90;12.20;;;11.10;75.50;;;;;;4947067;28;86840;-87
2021/03/07 09:57:22;;;;;;;13.63;11.98;;;10.70;78.50;;;;;;4956766;28;86524;-84
2021/03/07 09:59:50;;;;;;;16.40;11.48;;;10.70;79.70;;;;;;4967853;28;87706;-87
2021/03/07 10:02:17;;;;;;;13.65;11.10;;;11.00;79.10;;;;;;4949590;28;89408;-87
2021/03/07 10:04:47;;;;;;;12.05;10.35;;;11.00;79.50;;;;;;4969468;28;86301;-87
2021/03/07 10:07:15;;;;;;;14.65;11.00;;;11.40;78.40;;;;;;4957773;28;86599;-86
2021/03/07 10:09:57;;;;;;;13.45;10.90;;;12.00;77.90;;;;;;4947583;28;88481;-86
2021/03/07 10:12:24;;;;;;;14.65;11.43;;;12.40;72.90;;;;;;4965385;28;87191;-89
2021/03/07 10:14:53;;;;;;;13.48;11.18;;;13.00;72.60;;;;;;4969251;28;86477;-85
2021/03/07 10:17:19;;;;;;;13.18;10.50;;;13.40;69.90;;;;;;4968964;28;86739;-85
2021/03/07 10:23:07;;;;;;;12.95;10.65;;;13.70;67.90;;;;;;4964405;28;86868;-87
2021/03/07 10:32:11;;;;;;;13.27;11.65;;;14.10;64.50;;;;;;4960225;28;88183;-85
2021/03/07 10:34:42;;;;;;;15.00;11.70;;;14.40;63.40;;;;;;4962736;28;87096;-88
2021/03/07 10:37:10;;;;;;;15.27;11.70;;;14.70;63.40;;;;;;4966137;28;86916;-88
2021/03/07 10:43:03;;;;;;;12.82;10.57;;;16.10;58.70;;;;;;4951027;28;86709;-88
2021/03/07 10:45:29;;;;;;;14.00;11.50;;;18.00;55.90;;;;;;4962061;28;86517;-88
2021/03/07 10:48:15;;;;;;;14.05;11.23;;;18.30;52.00;;;;;;4964621;28;86075;-87
2021/03/07 10:53:17;;;;;;;12.70;11.38;;;17.20;51.50;;;;;;5449169;23;88826;-82
2021/03/07 10:55:51;;;;;;;12.60;11.27;;;16.60;52.40;;;;;;4955908;28;87308;-83
2021/03/07 10:58:16;;;;;;;13.18;11.77;;;16.20;52.80;;;;;;4939302;28;87496;-83
2021/03/07 11:00:42;;;;;;;13.80;10.98;;;15.80;54.20;;;;;;4957653;28;86616;-82
2021/03/07 11:03:08;;;;;;;15.70;11.27;;;15.80;54.90;;;;;;4956331;28;87940;-82
2021/03/07 11:05:34;;;;;;;12.13;10.82;;;16.40;53.90;;;;;;4956194;28;86947;-83
2021/03/07 11:08:00;;;;;;;12.90;11.05;;;17.30;53.40;;;;;;4959751;28;87226;-82
2021/03/07 11:10:26;;;;;;;13.25;11.25;;;18.00;51.30;;;;;;4957305;28;87466;-81
2021/03/07 11:12:52;;;;;;;12.95;11.10;;;18.10;49.80;;;;;;4961904;28;87209;-82
2021/03/07 11:15:18;;;;;;;13.77;11.68;;;17.70;49.80;;;;;;4960243;28;87647;-82
2021/03/07 11:17:44;;;;;;;14.00;11.95;;;17.20;50.20;;;;;;4967134;28;86830;-81
2021/03/07 11:20:11;;;;;;;13.85;11.75;;;16.50;51.30;;;;;;4963991;28;85414;-81
2021/03/07 11:22:38;;;;;;;14.82;11.70;;;15.80;51.70;;;;;;4960329;28;86756;-86
2021/03/07 11:25:07;;;;;;;13.20;11.57;;;15.10;53.40;;;;;;4965592;28;88603;-87
2021/03/07 11:27:33;;;;;;;14.45;10.73;;;14.50;53.90;;;;;;4967417;28;87227;-83
2021/03/07 11:30:00;;;;;;;13.18;11.07;;;14.20;54.90;;;;;;4958616;28;87012;-83
2021/03/07 11:32:26;;;;;;;13.77;11.38;;;14.10;56.10;;;;;;4956316;28;87217;-82
2021/03/07 11:34:51;;;;;;;12.55;11.25;;;14.20;56.10;;;;;;4963806;28;86783;-82
2021/03/07 11:37:17;;;;;;;12.27;10.98;;;14.90;55.80;;;;;;4965771;28;86843;-82
2021/03/07 11:39:43;;;;;;;14.55;11.75;;;15.50;54.10;;;;;;4961177;28;87665;-80
2021/03/07 11:42:09;;;;;;;14.20;12.10;;;15.90;53.60;;;;;;4966781;28;88247;-83
2021/03/07 11:44:35;;;;;;;13.20;11.57;;;16.20;51.90;;;;;;4957337;28;86599;-80
2021/03/07 11:47:01;;;;;;;15.35;12.50;;;16.10;51.90;;;;;;4959284;28;88253;-82
2021/03/07 11:49:26;;;;;;;14.45;11.60;;;15.80;51.70;;;;;;4961359;28;87106;-83
2021/03/07 11:51:52;;;;;;;15.15;11.82;;;15.40;52.00;;;;;;4954399;28;89173;-82
2021/03/07 11:54:19;;;;;;;15.57;12.60;;;14.70;52.50;;;;;;4954068;28;87116;-81
2021/03/07 11:56:45;;;;;;;15.70;12.43;;;13.90;54.00;;;;;;4967295;28;87090;-81
2021/03/07 11:59:11;;;;;;;16.10;11.65;;;13.50;55.50;;;;;;4961003;28;86947;-81
2021/03/07 12:01:37;;;;;;;14.93;12.23;;;13.00;56.90;;;;;;4962745;28;87369;-80
2021/03/07 12:04:02;;;;;;;16.70;12.88;;;12.40;58.20;;;;;;4960254;28;86683;-80
2021/03/07 12:06:28;;;;;;;17.65;12.98;;;11.90;60.00;;;;;;4955584;28;86586;-81
2021/03/07 12:08:54;;;;;;;17.70;13.65;;;11.50;63.90;;;;;;4961566;28;86423;-85
2021/03/07 12:11:19;;;;;;;14.90;12.15;;;11.00;65.20;;;;;;4955827;28;87409;-83
2021/03/07 12:13:46;;;;;;;17.17;13.07;;;10.60;68.90;;;;;;4967354;28;86998;-85
2021/03/07 12:16:12;;;;;;;20.38;14.90;;;10.20;70.90;;;;;;4948976;28;87818;-86
2021/03/07 12:18:38;;;;;;;20.40;14.95;;;9.90;74.60;;;;;;4959072;28;87059;-89
2021/03/07 12:21:05;;;;;;;17.85;13.20;;;9.60;76.40;;;;;;4943410;28;87563;-82
2021/03/07 12:23:32;;;;;;;20.33;14.10;;;9.40;80.10;;;;;;4958552;28;87019;-81
2021/03/07 12:25:58;;;;;;;20.65;14.07;;;9.30;81.00;;;;;;4953548;28;86986;-81
2021/03/07 12:28:24;;;;;;;20.50;14.10;;;9.20;83.00;;;;;;4959487;28;86826;-82
2021/03/07 12:30:49;;;;;;;20.80;14.52;;;9.00;85.30;;;;;;4962374;28;87502;-81
2021/03/07 12:33:16;;;;;;;19.75;14.65;;;8.90;88.00;;;;;;4958229;28;86266;-83
2021/03/07 12:35:42;;;;;;;18.42;12.80;;;8.70;89.20;;;;;;4958095;28;87151;-83
2021/03/07 12:38:07;;;;;;;21.35;14.35;;;8.70;89.50;;;;;;4961911;28;87923;-81
2021/03/07 12:40:33;;;;;;;19.45;14.23;;;8.60;90.40;;;;;;4953299;28;89260;-82
2021/03/07 12:43:00;;;;;;;19.67;14.40;;;8.60;90.30;;;;;;4948008;28;88695;-83
2021/03/07 12:45:26;;;;;;;23.60;15.40;;;8.60;90.80;;;;;;4964239;28;86772;-82
2021/03/07 12:47:51;;;;;;;20.25;14.27;;;8.60;91.10;;;;;;4977180;28;87167;-80
2021/03/07 12:50:17;;;;;;;22.48;14.90;;;8.70;91.30;;;;;;4965824;28;87664;-80
2021/03/07 12:52:43;;;;;;;23.20;15.77;;;8.70;91.90;;;;;;4965270;28;87345;-80
2021/03/07 12:55:09;;;;;;;21.05;14.95;;;8.40;92.90;;;;;;4968644;28;86925;-80
2021/03/07 12:57:35;;;;;;;21.52;15.15;;;8.40;93.20;;;;;;4977293;28;85601;-80
2021/03/07 13:00:01;;;;;;;20.92;14.93;;;8.50;94.00;;;;;;4976122;28;88782;-79
2021/03/07 13:02:27;;;;;;;20.58;14.60;;;8.30;95.00;;;;;;4960301;28;87438;-82
2021/03/07 13:04:52;;;;;;;21.15;15.77;;;8.10;94.50;;;;;;4959502;28;88005;-82
2021/03/07 13:07:18;;;;;;;27.90;18.52;;;8.10;95.20;;;;;;4947280;28;88745;-82
2021/03/07 13:09:44;;;;;;;23.80;16.08;;;8.40;95.30;;;;;;4963109;28;87366;-81
2021/03/07 13:12:10;;;;;;;19.52;14.13;;;8.90;95.20;;;;;;4967313;28;87019;-86
2021/03/07 13:14:36;;;;;;;21.25;14.05;;;9.20;94.10;;;;;;4962438;28;87049;-86
2021/03/07 13:17:02;;;;;;;16.00;13.05;;;9.80;92.90;;;;;;4964956;28;86779;-86
2021/03/07 13:19:27;;;;;;;18.42;13.13;;;10.40;91.90;;;;;;4969882;28;87753;-86
2021/03/07 13:21:54;;;;;;;17.38;12.90;;;10.70;90.80;;;;;;4962770;28;87483;-86
2021/03/07 13:24:20;;;;;;;18.10;14.00;;;10.80;88.60;;;;;;4957236;28;86270;-86
2021/03/07 13:26:47;;;;;;;18.45;13.23;;;11.00;87.50;;;;;;4969506;28;86578;-85
2021/03/07 13:29:14;;;;;;;17.08;13.68;;;11.10;87.90;;;;;;4957121;28;90117;-87
2021/03/07 13:31:40;;;;;;;18.40;12.55;;;11.30;87.30;;;;;;4963013;28;88356;-87
2021/03/07 13:34:05;;;;;;;18.73;12.68;;;11.20;84.60;;;;;;4968153;28;87028;-86
2021/03/07 13:36:32;;;;;;;16.55;11.73;;;11.70;85.20;;;;;;4962580;28;87063;-87
2021/03/07 13:38:58;;;;;;;16.20;12.13;;;12.50;83.40;;;;;;4958993;28;87046;-87
2021/03/07 13:41:25;;;;;;;19.52;12.75;;;12.70;79.40;;;;;;4959294;28;87177;-86
2021/03/07 13:43:51;;;;;;;18.02;12.93;;;12.50;78.10;;;;;;4958968;28;87048;-85
2021/03/07 13:46:17;;;;;;;15.05;11.35;;;12.00;78.00;;;;;;4959347;28;86569;-86
2021/03/07 13:48:44;;;;;;;15.70;11.80;;;11.70;80.50;;;;;;4960418;28;87124;-86
2021/03/07 13:51:11;;;;;;;19.67;13.63;;;11.40;80.80;;;;;;4964084;28;88393;-86
2021/03/07 13:53:37;;;;;;;17.73;12.73;;;11.00;83.10;;;;;;4964199;28;87919;-86
2021/03/07 13:56:04;;;;;;;16.55;11.57;;;10.70;83.10;;;;;;4968307;28;87283;-87
2021/03/07 13:58:30;;;;;;;16.55;12.00;;;10.90;81.90;;;;;;4960693;28;87744;-87
2021/03/07 14:00:55;;;;;;;17.70;12.88;;;10.90;83.40;;;;;;4964017;28;87403;-87
2021/03/07 14:03:21;;;;;;;16.08;11.88;;;11.10;83.80;;;;;;4964937;28;87046;-86
2021/03/07 14:05:47;;;;;;;15.40;11.70;;;11.30;83.10;;;;;;4945648;28;87315;-87
2021/03/07 14:08:13;;;;;;;15.05;12.05;;;11.50;82.80;;;;;;4958910;28;87625;-86
2021/03/07 14:10:38;;;;;;;16.23;11.45;;;11.60;81.90;;;;;;4961132;28;87439;-86
2021/03/07 14:13:05;;;;;;;18.63;11.63;;;11.70;81.20;;;;;;4956270;28;87376;-87
2021/03/07 14:15:30;;;;;;;17.67;10.32;;;11.70;81.00;;;;;;4955204;28;86913;-84
2021/03/07 14:17:56;;;;;;;25.67;17.25;;;11.60;77.10;;;;;;4944673;28;90741;-87
2021/03/07 14:20:22;;;;;;;17.38;11.57;;;11.70;78.90;;;;;;4928898;28;89453;-84
2021/03/07 14:22:48;;;;;;;14.13;10.13;;;11.70;77.40;;;;;;4939737;28;87113;-84
2021/03/07 14:25:14;;;;;;;14.45;10.43;;;12.00;77.30;;;;;;4941695;28;86965;-83
2021/03/07 14:27:41;;;;;;;16.20;10.10;;;12.30;76.10;;;;;;4944890;28;87240;-86
2021/03/07 14:30:12;;;;;;;14.10;10.43;;;12.70;76.20;;;;;;4949503;28;88198;-85
2021/03/07 14:32:39;;;;;;;15.48;10.30;;;13.30;73.40;;;;;;4948342;28;87425;-87
2021/03/07 14:35:06;;;;;;;14.18;10.88;;;13.30;71.90;;;;;;4946025;28;86599;-85
2021/03/07 14:37:32;;;;;;;17.20;11.05;;;13.40;72.00;;;;;;4940374;28;89665;-81
2021/03/07 14:39:58;;;;;;;14.15;10.95;;;13.80;71.90;;;;;;4938302;28;87409;-82
2021/03/07 14:42:24;;;;;;;17.67;10.52;;;14.10;70.80;;;;;;4945543;28;87851;-81
2021/03/07 14:44:50;;;;;;;15.05;11.15;;;14.20;69.30;;;;;;4945391;28;87503;-83
2021/03/07 14:47:16;;;;;;;12.63;9.68;;;14.10;68.30;;;;;;4949605;28;90791;-83
2021/03/07 14:49:41;;;;;;;14.88;10.32;;;14.20;68.90;;;;;;4948028;28;87089;-81
2021/03/07 14:52:07;;;;;;;15.65;10.73;;;14.50;68.80;;;;;;4943756;28;89083;-81
2021/03/07 14:54:33;;;;;;;14.40;10.55;;;14.50;69.50;;;;;;4948163;28;87486;-81
2021/03/07 14:56:59;;;;;;;16.00;10.68;;;14.90;68.20;;;;;;4946862;28;88537;-81
2021/03/07 14:59:25;;;;;;;15.07;11.20;;;15.50;66.50;;;;;;4944964;28;87312;-82
2021/03/07 15:01:51;;;;;;;14.02;10.30;;;15.40;64.60;;;;;;4941449;28;88295;-80
2021/03/07 15:04:18;;;;;;;15.43;10.43;;;15.30;65.80;;;;;;4940930;28;88508;-80
2021/03/07 15:06:44;;;;;;;16.92;11.55;;;14.90;64.90;;;;;;4939619;28;88581;-81
2021/03/07 15:09:10;;;;;;;15.98;11.35;;;14.50;65.80;;;;;;4943284;28;87934;-81
2021/03/07 15:11:40;;;;;;;14.73;11.65;;;14.20;66.80;;;;;;4940480;28;87504;-80
2021/03/07 15:14:05;;;;;;;14.93;11.75;;;13.90;68.30;;;;;;4944888;28;87928;-81
2021/03/07 15:16:32;;;;;;;16.10;10.32;;;13.60;69.10;;;;;;4930883;28;89628;-81
2021/03/07 15:18:58;;;;;;;16.33;10.48;;;13.10;69.40;;;;;;4945301;28;88018;-80
2021/03/07 15:21:24;;;;;;;14.80;10.23;;;12.60;72.00;;;;;;4942076;28;87366;-80
2021/03/07 15:23:50;;;;;;;15.77;10.13;;;12.10;73.40;;;;;;4944007;28;86237;-83
2021/03/07 15:26:16;;;;;;;17.40;10.75;;;11.80;76.70;;;;;;4944012;28;88087;-82
2021/03/07 15:28:43;;;;;;;13.38;10.02;;;11.60;78.40;;;;;;4941630;28;87135;-82
2021/03/07 15:31:09;;;;;;;17.00;11.02;;;11.60;76.80;;;;;;4945011;28;88017;-82
2021/03/07 15:33:34;;;;;;;25.85;14.38;;;11.50;77.20;;;;;;4947255;28;87346;-82
2021/03/07 15:36:00;;;;;;;19.75;11.60;;;11.50;78.90;;;;;;4951423;28;87527;-82
2021/03/07 15:38:26;;;;;;;18.95;11.05;;;11.50;79.00;;;;;;4955645;28;87251;-82
2021/03/07 15:40:51;;;;;;;19.95;11.95;;;11.40;79.50;;;;;;4939533;28;86843;-83
2021/03/07 15:43:17;;;;;;;14.07;8.95;;;11.30;80.60;;;;;;4956293;28;86906;-81
2021/03/07 15:45:43;;;;;;;18.80;10.18;;;11.30;81.10;;;;;;4948093;28;87127;-81
2021/03/07 15:48:09;;;;;;;21.08;10.25;;;11.00;83.30;;;;;;4945016;28;86965;-82
2021/03/07 15:50:34;;;;;;;15.80;10.23;;;10.70;81.80;;;;;;4950918;28;87087;-82
2021/03/07 15:53:00;;;;;;;14.65;10.05;;;10.50;84.00;;;;;;4951765;28;86971;-81
2021/03/07 15:55:26;;;;;;;16.40;10.80;;;10.30;85.60;;;;;;4951428;28;88302;-81
2021/03/07 15:57:52;;;;;;;14.40;9.65;;;9.90;86.40;;;;;;4945514;28;90541;-80
2021/03/07 16:00:18;;;;;;;12.82;9.07;;;9.70;87.10;;;;;;4942499;28;88408;-81
2021/03/07 16:02:44;;;;;;;17.05;10.55;;;9.60;88.00;;;;;;4941292;28;86961;-81
2021/03/07 16:05:10;;;;;;;16.83;10.70;;;9.50;88.10;;;;;;4944581;28;87999;-85
2021/03/07 16:07:36;;;;;;;14.38;10.07;;;9.50;88.50;;;;;;4953783;28;88064;-86
2021/03/07 16:10:03;;;;;;;14.57;10.07;;;9.50;88.70;;;;;;4952190;28;86780;-85
2021/03/07 16:12:29;;;;;;;16.23;9.70;;;9.60;88.90;;;;;;4951952;28;86898;-84
2021/03/07 16:14:59;;;;;;;16.70;9.60;;;9.60;88.60;;;;;;4951386;28;86962;-85
2021/03/07 16:17:26;;;;;;;14.75;9.70;;;9.60;89.30;;;;;;4949633;28;87245;-85
2021/03/07 16:19:51;;;;;;;14.60;10.15;;;9.60;89.60;;;;;;4953867;28;89231;-84
2021/03/07 16:22:18;;;;;;;15.43;9.98;;;9.50;90.40;;;;;;4953606;28;87433;-84
2021/03/07 16:24:43;;;;;;;14.88;9.98;;;9.40;90.70;;;;;;4954090;28;88002;-83
2021/03/07 16:27:09;;;;;;;14.20;9.48;;;9.50;90.90;;;;;;4953410;28;87104;-84
2021/03/07 16:29:35;;;;;;;13.63;9.68;;;9.50;90.70;;;;;;4940173;28;87072;-85
2021/03/07 16:32:00;;;;;;;18.58;9.43;;;9.50;91.00;;;;;;4956512;28;87044;-85
2021/03/07 16:34:26;;;;;;;14.18;8.90;;;9.50;90.80;;;;;;4953345;28;87750;-84
2021/03/07 16:36:52;;;;;;;24.35;13.77;;;9.50;91.40;;;;;;4955153;28;86957;-84
2021/03/07 16:39:17;;;;;;;21.95;13.18;;;9.60;91.50;;;;;;4936757;28;87132;-84
2021/03/07 16:41:43;;;;;;;19.13;11.43;;;9.60;91.30;;;;;;4956520;28;87675;-85
2021/03/07 16:44:09;;;;;;;19.35;11.55;;;9.70;91.10;;;;;;4954270;28;90111;-83
2021/03/07 16:46:35;;;;;;;16.30;10.88;;;9.80;90.90;;;;;;4953251;28;87658;-84
2021/03/07 16:49:01;;;;;;;18.38;10.40;;;9.90;90.80;;;;;;4950880;28;87278;-83
2021/03/07 16:51:27;;;;;;;23.08;11.50;;;9.90;90.90;;;;;;4952461;28;87015;-84
2021/03/07 16:53:53;;;;;;;22.33;12.82;;;9.90;90.90;;;;;;4948111;28;87208;-83
2021/03/07 16:56:19;;;;;;;57.17;31.73;;;9.90;91.60;;;;;;4949878;28;87576;-83
2021/03/07 16:58:44;;;;;;;19.77;11.98;;;9.70;92.30;;;;;;4935747;28;87066;-83
2021/03/07 17:01:10;;;;;;;16.60;10.98;;;9.40;93.40;;;;;;4953968;28;87019;-85
2021/03/07 17:03:36;;;;;;;20.40;10.73;;;9.10;94.90;;;;;;4954151;28;87446;-83
2021/03/07 17:06:01;;;;;;;18.90;12.50;;;8.80;96.00;;;;;;4949894;28;87366;-83
2021/03/07 17:08:27;;;;;;;16.50;10.02;;;8.80;96.70;;;;;;4950546;28;88063;-86
2021/03/07 17:10:53;;;;;;;18.05;10.25;;;8.80;96.20;;;;;;4946255;28;87391;-87
2021/03/07 17:13:19;;;;;;;14.75;8.80;;;;;;;;;;4948803;28;86973;-86
2021/03/07 17:15:45;;;;;;;15.75;9.45;;;8.70;95.90;;;;;;4953200;28;87275;-83
2021/03/07 17:18:11;;;;;;;16.63;10.57;;;8.70;96.50;;;;;;4954650;28;87565;-84
2021/03/07 17:20:36;;;;;;;17.98;11.30;;;8.60;96.70;;;;;;4934638;28;87494;-84
2021/03/07 17:23:02;;;;;;;21.15;12.13;;;8.70;97.50;;;;;;4951127;28;88783;-82
2021/03/07 17:25:28;;;;;;;20.38;12.30;;;8.60;97.80;;;;;;4948723;28;87479;-84
2021/03/07 17:27:54;;;;;;;18.98;12.10;;;8.60;97.80;;;;;;4947075;28;87114;-84
2021/03/07 17:30:20;;;;;;;20.92;14.00;;;8.60;98.50;;;;;;4944512;28;87442;-86
2021/03/07 17:32:46;;;;;;;19.92;11.98;;;8.50;99.10;;;;;;4936931;28;89775;-82
2021/03/07 17:35:12;;;;;;;20.33;13.27;;;8.40;99.60;;;;;;4944113;28;87821;-79
2021/03/07 17:37:38;;;;;;;19.77;13.05;;;8.40;99.80;;;;;;4944612;28;86324;-81
2021/03/07 17:40:04;;;;;;;17.50;11.48;;;8.40;99.90;;;;;;4950346;28;86945;-79
2021/03/07 17:42:30;;;;;;;22.02;12.35;;;8.30;99.70;;;;;;4948185;28;89077;-83
2021/03/07 17:44:55;;;;;;;17.13;11.70;;;8.30;99.90;;;;;;4940190;28;87571;-81
2021/03/07 17:47:21;;;;;;;19.60;12.70;;;8.20;99.90;;;;;;4937867;28;87476;-80
2021/03/07 17:49:47;;;;;;;18.13;12.05;;;8.20;99.90;;;;;;4937253;28;86818;-78
2021/03/07 17:52:12;;;;;;;19.67;12.60;;;8.10;99.90;;;;;;4939162;28;87070;-79
2021/03/07 17:54:38;;;;;;;19.92;12.60;;;8.10;99.90;;;;;;4944373;28;88029;-79
2021/03/07 17:57:05;;;;;;;19.17;11.80;;;8.10;99.90;;;;;;4944076;28;89168;-79
2021/03/07 17:59:30;;;;;;;17.02;10.43;;;8.10;99.90;;;;;;4943047;28;87098;-79
2021/03/07 18:01:57;;;;;;;18.48;10.07;;;8.10;99.90;;;;;;4944291;28;87354;-81
2021/03/07 18:04:22;;;;;;;14.60;8.57;;;8.20;99.90;;;;;;4938114;28;88919;-82
2021/03/07 18:06:48;;;;;;;13.45;8.20;;;8.20;98.80;;;;;;4941388;28;86722;-81
2021/03/07 18:09:15;;;;;;;12.70;7.50;;;8.30;98.70;;;;;;4946391;28;86728;-80
2021/03/07 18:11:41;;;;;;;9.48;6.93;;;8.40;97.50;;;;;;4944026;28;87717;-80
2021/03/07 18:14:07;;;;;;;10.05;7.60;;;8.40;96.90;;;;;;4939952;28;86931;-80
2021/03/07 18:16:33;;;;;;;16.67;7.53;;;8.60;96.80;;;;;;4945794;28;88068;-80
2021/03/07 18:18:58;;;;;;;10.35;7.10;;;8.60;96.60;;;;;;4944722;28;86394;-79
2021/03/07 18:21:25;;;;;;;12.57;7.03;;;8.70;96.30;;;;;;4942064;28;88787;-80
2021/03/07 18:23:53;;;;;;;10.57;6.90;;;8.70;96.50;;;;;;4942005;28;88469;-79
2021/03/07 18:26:19;;;;;;;12.07;6.57;;;8.80;96.70;;;;;;4943081;28;86813;-81